createdAt,value
2019-05-02T00:02:28.886Z,5.33
2019-05-02T00:07:36.524Z,5.35
2019-05-02T00:12:42.865Z,5.31
2019-05-02T00:17:49.326Z,6.02
2019-05-02T00:22:55.542Z,6.05
2019-05-02T00:28:01.979Z,6.10
2019-05-02T00:33:10.457Z,6.68
2019-05-02T00:38:17.079Z,7.51
2019-05-02T00:43:23.576Z,7.70
2019-05-02T00:48:30.144Z,7.70
2019-05-02T00:53:36.386Z,8.64
2019-05-02T00:58:42.919Z,8.76
2019-05-02T01:03:52.132Z,8.95
2019-05-02T01:08:50.043Z,10.58
2019-05-02T01:13:57.738Z,11.06
2019-05-02T01:19:04.160Z,12.14
2019-05-02T01:24:10.428Z,12.82
2019-05-02T01:29:16.739Z,12.82
2019-05-02T01:34:23.111Z,13.55
2019-05-02T01:39:29.491Z,13.57
2019-05-02T01:44:36.569Z,14.36
2019-05-02T01:49:44.342Z,13.55
2019-05-02T01:54:50.593Z,14.28
2019-05-02T01:59:56.970Z,15.03
2019-05-02T02:05:03.385Z,15.31
2019-05-02T02:10:09.826Z,15.97
2019-05-02T02:15:16.003Z,16.89
2019-05-02T02:20:22.300Z,15.93
2019-05-02T02:25:32.293Z,17.59
2019-05-02T02:30:32.728Z,16.82
2019-05-02T02:35:49.755Z,16.90
2019-05-02T02:40:45.463Z,18.22
2019-05-02T02:50:53.402Z,19.26
2019-05-02T02:56:01.771Z,18.31
2019-05-02T03:01:00.173Z,20.03
2019-05-02T03:06:08.173Z,20.49
2019-05-02T03:11:22.432Z,21.79
2019-05-02T03:16:19.738Z,21.01
2019-05-02T03:21:26.238Z,22.24
2019-05-02T03:26:32.628Z,21.92
2019-05-02T03:31:39.265Z,23.70
2019-05-02T03:36:45.596Z,23.48
2019-05-02T03:41:55.695Z,23.53
2019-05-02T03:47:02.302Z,24.22
2019-05-02T03:52:03.081Z,23.69
2019-05-02T03:57:01.796Z,23.84
2019-05-02T04:02:14.337Z,23.43
2019-05-02T04:07:14.664Z,22.74
2019-05-02T04:12:21.886Z,23.88
2019-05-02T04:17:34.879Z,23.45
2019-05-02T04:22:33.678Z,22.73
2019-05-02T04:27:39.967Z,22.97
2019-05-02T04:32:49.913Z,22.60
2019-05-02T04:37:51.995Z,21.92
2019-05-02T04:43:02.022Z,20.93
2019-05-02T04:48:04.054Z,21.32
2019-05-02T04:53:11.470Z,20.00
2019-05-02T04:58:27.117Z,19.28
2019-05-02T05:03:23.628Z,18.61
2019-05-02T05:08:31.871Z,19.08
2019-05-02T05:13:38.392Z,19.69
2019-05-02T05:18:49.389Z,20.29
2019-05-02T05:23:51.716Z,19.96
2019-05-02T05:28:52.681Z,19.36
2019-05-02T05:33:58.987Z,19.87
2019-05-02T05:39:10.088Z,20.16
2019-05-02T05:44:08.151Z,19.02
2019-05-02T05:49:18.401Z,18.64
2019-05-02T05:54:18.120Z,19.28
2019-05-02T05:59:28.317Z,18.79
2019-05-02T06:04:32.594Z,19.42
2019-05-02T06:09:31.039Z,18.65
2019-05-02T06:14:38.775Z,17.49
2019-05-02T06:19:48.341Z,17.32
2019-05-02T06:24:50.908Z,16.51
2019-05-02T06:29:58.365Z,16.41
2019-05-02T06:35:05.271Z,15.98
2019-05-02T06:40:11.545Z,15.55
2019-05-02T06:45:18.698Z,15.07
2019-05-02T06:50:25.561Z,15.28
2019-05-02T06:55:36.267Z,15.33
2019-05-02T07:00:41.400Z,15.66
2019-05-02T07:05:41.395Z,15.96
2019-05-02T07:10:47.800Z,16.43
2019-05-02T07:15:54.104Z,16.13
2019-05-02T07:21:00.401Z,15.79
2019-05-02T07:26:06.860Z,16.11
2019-05-02T07:31:13.901Z,17.33
2019-05-02T07:36:20.438Z,16.98
2019-05-02T07:41:29.055Z,16.94
2019-05-02T07:46:36.658Z,15.10
2019-05-02T07:51:42.807Z,15.56
2019-05-02T07:56:53.275Z,17.27
2019-05-02T08:01:51.007Z,18.34
2019-05-02T08:06:57.327Z,18.74
2019-05-02T08:12:03.491Z,19.80
2019-05-02T08:17:16.279Z,20.65
2019-05-02T08:22:14.802Z,20.43
2019-05-02T08:27:23.199Z,19.22
2019-05-02T08:32:30.459Z,20.00
2019-05-02T08:37:41.068Z,20.55
2019-05-02T08:42:39.044Z,20.77
2019-05-02T08:47:45.564Z,20.10
2019-05-02T08:52:51.968Z,23.35
2019-05-02T08:57:58.820Z,20.60
2019-05-02T09:03:04.975Z,19.63
2019-05-02T09:08:14.536Z,19.42
2019-05-02T09:13:15.828Z,19.14
2019-05-02T09:18:19.212Z,18.80
2019-05-02T09:23:27.621Z,19.06
2019-05-02T09:28:28.417Z,17.37
2019-05-02T09:33:36.878Z,15.71
2019-05-02T09:38:37.699Z,16.96
2019-05-02T09:43:43.897Z,17.19
2019-05-02T09:48:51.943Z,18.24
2019-05-02T09:54:02.585Z,18.38
2019-05-02T09:59:23.364Z,18.82
2019-05-02T10:04:11.851Z,18.57
2019-05-02T10:09:22.897Z,17.21
2019-05-02T10:14:22.395Z,15.95
2019-05-02T10:19:29.223Z,15.93
2019-05-02T10:24:35.507Z,17.40
2019-05-02T10:29:42.168Z,18.03
2019-05-02T10:34:55.172Z,18.16
2019-05-02T10:39:55.652Z,17.61
2019-05-02T10:45:02.769Z,17.36
2019-05-02T10:50:09.317Z,17.51
2019-05-02T10:55:15.624Z,18.09
2019-05-02T11:00:22.136Z,62.58
2019-05-02T11:05:28.689Z,18.10
2019-05-02T11:10:35.500Z,18.75
2019-05-02T11:15:42.555Z,19.21
2019-05-02T11:20:49.133Z,18.57
2019-05-02T11:25:55.484Z,17.70
2019-05-02T11:31:06.455Z,17.83
2019-05-02T11:36:03.888Z,17.24
2019-05-02T11:41:11.913Z,18.00
2019-05-02T11:46:18.351Z,17.70
2019-05-02T11:51:24.779Z,17.54
2019-05-02T11:56:32.896Z,16.26
2019-05-02T12:01:42.643Z,16.26
2019-05-02T12:06:49.969Z,16.91
2019-05-02T12:11:56.755Z,16.71
2019-05-02T12:17:03.116Z,16.21
2019-05-02T12:22:12.836Z,16.67
2019-05-02T12:27:13.285Z,16.65
2019-05-02T12:32:19.788Z,16.90
2019-05-02T12:37:28.761Z,16.69
2019-05-02T12:42:35.259Z,18.78
2019-05-02T12:47:42.831Z,19.05
2019-05-02T12:52:49.627Z,20.02
2019-05-02T12:57:55.815Z,20.16
2019-05-02T13:03:02.384Z,17.18
2019-05-02T13:08:08.748Z,17.42
2019-05-02T13:13:16.218Z,16.20
2019-05-02T13:18:27.292Z,16.55
2019-05-02T13:23:35.446Z,16.57
2019-05-02T13:28:34.109Z,16.92
2019-05-02T13:33:43.237Z,14.36
2019-05-02T13:38:49.570Z,13.57
2019-05-02T13:43:55.902Z,13.06
2019-05-02T13:49:02.218Z,11.98
2019-05-02T13:54:09.060Z,9.76
2019-05-02T13:59:15.161Z,9.48
2019-05-02T14:04:23.106Z,10.03
2019-05-02T14:09:32.216Z,8.30
2019-05-02T14:14:39.434Z,8.69
2019-05-02T14:19:45.706Z,8.45
2019-05-02T14:24:52.067Z,8.51
2019-05-02T14:29:58.822Z,8.66
2019-05-02T14:35:05.259Z,8.05
2019-05-02T14:40:11.818Z,8.67
2019-05-02T14:45:27.158Z,7.62
2019-05-02T14:50:26.584Z,7.28
2019-05-02T14:55:33.940Z,7.82
2019-05-02T15:00:45.790Z,7.60
2019-05-02T15:05:44.159Z,8.19
2019-05-02T15:10:54.421Z,8.15
2019-05-02T15:15:53.145Z,6.36
2019-05-02T15:21:03.958Z,6.00
2019-05-02T15:26:07.094Z,6.18
2019-05-02T15:31:13.257Z,6.56
2019-05-02T15:36:19.720Z,6.30
2019-05-02T15:41:27.369Z,8.33
2019-05-02T15:46:33.412Z,7.47
2019-05-02T15:51:43.691Z,5.50
2019-05-02T15:56:46.372Z,5.56
2019-05-02T16:01:56.071Z,6.39
2019-05-02T16:07:07.136Z,8.22
2019-05-02T16:12:04.627Z,7.26
2019-05-02T16:17:12.556Z,4.98
2019-05-02T16:22:19.320Z,3.48
2019-05-02T16:27:29.057Z,2.49
2019-05-02T16:32:37.695Z,2.66
2019-05-02T16:37:46.836Z,3.05
2019-05-02T16:42:47.677Z,2.40
2019-05-02T16:47:58.755Z,2.38
2019-05-02T16:52:56.404Z,2.12
2019-05-02T16:58:07.177Z,2.54
2019-05-02T17:03:03.940Z,2.47
2019-05-02T17:08:18.603Z,3.16
2019-05-02T17:13:16.664Z,3.35
2019-05-02T17:18:23.002Z,3.99
2019-05-02T17:23:29.918Z,3.64
2019-05-02T17:28:37.927Z,3.52
2019-05-02T17:33:38.402Z,3.51
2019-05-02T17:38:44.939Z,3.50
2019-05-02T17:43:51.821Z,3.77
2019-05-02T17:48:57.930Z,3.99
2019-05-02T17:54:04.228Z,3.90
2019-05-02T17:59:11.773Z,4.18
2019-05-02T18:04:18.188Z,4.65
2019-05-02T18:09:26.266Z,4.60
2019-05-02T18:14:27.339Z,5.05
2019-05-02T18:19:33.756Z,4.42
2019-05-02T18:24:42.741Z,4.79
2019-05-02T18:29:45.435Z,4.83
2019-05-02T18:34:52.267Z,4.85
2019-05-02T18:39:55.881Z,4.58
2019-05-02T18:45:02.496Z,4.03
2019-05-02T18:50:08.900Z,4.36
2019-05-02T18:55:17.180Z,4.56
2019-05-02T19:00:18.292Z,4.81
2019-05-02T19:05:26.478Z,4.60
2019-05-02T19:10:37.064Z,5.62
2019-05-02T19:15:39.523Z,4.53
2019-05-02T19:20:55.550Z,4.22
2019-05-02T19:25:44.686Z,5.34
2019-05-02T19:30:52.035Z,4.53
2019-05-02T19:35:59.582Z,4.40
2019-05-02T19:41:09.225Z,3.89
2019-05-02T19:46:16.991Z,3.92
2019-05-02T19:51:23.471Z,4.06
2019-05-02T19:56:33.477Z,4.13
2019-05-02T20:01:37.412Z,3.77
2019-05-02T20:06:44.394Z,3.88
2019-05-02T20:11:52.082Z,3.87
2019-05-02T20:16:58.571Z,3.47
2019-05-02T20:22:06.620Z,3.47
2019-05-02T20:27:13.087Z,3.25
2019-05-02T20:32:21.913Z,3.10
2019-05-02T20:37:28.549Z,3.60
2019-05-02T20:42:35.110Z,3.28
2019-05-02T20:47:42.722Z,3.61
2019-05-02T20:52:49.560Z,3.44
2019-05-02T20:57:55.876Z,3.21
2019-05-02T21:03:02.670Z,3.39
2019-05-02T21:08:08.963Z,2.92
2019-05-02T21:13:15.274Z,3.21
2019-05-02T21:18:22.046Z,3.21
2019-05-02T21:23:35.543Z,3.15
2019-05-02T21:28:34.743Z,3.21
2019-05-02T21:33:42.759Z,3.31
2019-05-02T21:38:49.202Z,3.26
2019-05-02T21:43:55.618Z,3.34
2019-05-02T21:49:03.933Z,2.78
2019-05-02T21:54:12.184Z,2.75
2019-05-02T21:59:18.538Z,3.19
2019-05-02T22:04:25.055Z,3.01
2019-05-02T22:09:32.371Z,2.82
2019-05-02T22:14:38.924Z,3.16
2019-05-02T22:19:45.213Z,2.85
2019-05-02T22:24:52.823Z,2.99
2019-05-02T22:29:59.429Z,3.07
2019-05-02T22:35:05.802Z,2.89
2019-05-02T22:40:13.561Z,3.12
2019-05-02T22:45:21.803Z,2.86
2019-05-02T22:50:28.400Z,2.91
2019-05-02T22:55:34.823Z,3.09
2019-05-02T23:00:41.671Z,2.89
2019-05-02T23:05:48.083Z,3.04
2019-05-02T23:10:54.218Z,2.85
2019-05-02T23:16:00.472Z,2.94
2019-05-02T23:21:06.946Z,2.93
2019-05-02T23:26:13.224Z,3.05
2019-05-02T23:31:19.580Z,2.86
2019-05-02T23:36:25.909Z,2.75
2019-05-02T23:41:32.852Z,2.78
2019-05-02T23:46:39.375Z,3.08
2019-05-02T23:51:45.639Z,3.45
2019-05-02T23:56:51.915Z,3.08
